Council, ID (83612)

5:30 AM MDT on September 03, 2015 (GMT -0600)
RAWS | | Change Station
CLOSE
Current Station
Personal Weather Station
Location: Council, ID
Elevation: 3804 ft
Nearby Weather Stations

Elev 3804 ft 44.85 °N, 116.43 °W | Updated 48 minutes ago

Overcast
Overcast
53.0 °F
Feels Like 53.0 °F
N
2.0
Wind Variable Wind from West
Gusts 10.0 mph

Today
High -- | Low -- °F
--% Chance of Precip.
Yesterday
High -- | Low -- °F
Precip. -- in
7:10 AM 8:19 PM
Waning Gibbous, 71% visible
Pressure 29.81 in
Visibility 10.0 miles
Clouds Mostly Cloudy 11000 ft
Dew Point 45.0 °F
Humidity 74%
Rainfall in
Snow Depth Not available.
UV 0 out of 12
Pollen 6.80 out of 12
Air Quality Not available.
Flu Activity Not available.
METAR KMYL 031051Z AUTO 00000KT 10SM BKN110 09/06 A2991 RMK AO2 SLP094 T00890061
Pressure 29.81 in
Visibility 10.0 miles
Clouds Mostly Cloudy 11000 ft
Dew Point 45.0 °F
Humidity 74%
Rainfall in
Snow Depth Not available.
UV 0 out of 12
Pollen 6.80 out of 12
Air Quality Not available.
Flu Activity Not available.
METAR KMYL 031051Z AUTO 00000KT 10SM BKN110 09/06 A2991 RMK AO2 SLP094 T00890061

10-Day Weather Forecast

×

Almanac

Astronomy

Sep. 03, 2015 Rise Set
Actual Time
Civil Twilight
Nautical Twilight
Astronomical Twilight
Moon
Length of Visible Light
Length of Day
Tomorrow will be .
, % of the Moon is Illuminated

Today's Extremes

State Highs State Lows

Community

WunderPhotos

Upload Photos

1,851,933 photos uploaded!

WunderBlogs® & News

Nearby

Air Quality

  Air Quality AQ Index Pollutant
Not available.

Snow Depth

Station Depth Elevation

Earthquake Activity

City Distance Mag. Time & Date
Minimum magnitude displayed is 2.5.

Coastal Water Temperatures

Place Temperature

Stations

Nearby Weather Stations

Station Location Temp. Windchill Dew Point Humidity Wind Precip. Elev Updated Type